sensor_id;sensor_type;location;lat;lon;timestamp;pressure;altitude;pressure_sealevel;temperature;humidity
65394;BME280;52002;49.760;6.512;2022-08-21T00:00:18;100120.17;;;17.77;56.15
65394;BME280;52002;49.760;6.512;2022-08-21T00:02:54;100117.69;;;17.71;56.26
65394;BME280;52002;49.760;6.512;2022-08-21T00:05:18;100118.56;;;17.67;56.37
65394;BME280;52002;49.760;6.512;2022-08-21T00:07:45;100108.48;;;17.61;56.49
65394;BME280;52002;49.760;6.512;2022-08-21T00:10:12;100109.55;;;17.56;56.59
65394;BME280;52002;49.760;6.512;2022-08-21T00:12:39;100107.20;;;17.53;56.72
65394;BME280;52002;49.760;6.512;2022-08-21T00:15:09;100113.98;;;17.49;56.78
65394;BME280;52002;49.760;6.512;2022-08-21T00:17:36;100105.57;;;17.43;56.88
65394;BME280;52002;49.760;6.512;2022-08-21T00:20:05;100113.66;;;17.43;57.02
65394;BME280;52002;49.760;6.512;2022-08-21T00:22:33;100105.63;;;17.39;57.21
65394;BME280;52002;49.760;6.512;2022-08-21T00:25:00;100111.37;;;17.36;57.30
65394;BME280;52002;49.760;6.512;2022-08-21T00:27:27;100107.01;;;17.31;57.42
65394;BME280;52002;49.760;6.512;2022-08-21T00:29:53;100108.90;;;17.26;57.53
65394;BME280;52002;49.760;6.512;2022-08-21T00:32:26;100106.88;;;17.24;57.61
65394;BME280;52002;49.760;6.512;2022-08-21T00:34:50;100103.38;;;17.20;57.64
65394;BME280;52002;49.760;6.512;2022-08-21T00:37:17;100105.27;;;17.15;57.76
65394;BME280;52002;49.760;6.512;2022-08-21T00:39:43;100109.80;;;17.14;58.00
65394;BME280;52002;49.760;6.512;2022-08-21T00:42:10;100114.04;;;17.13;58.18
65394;BME280;52002;49.760;6.512;2022-08-21T00:44:38;100112.17;;;17.13;58.17
65394;BME280;52002;49.760;6.512;2022-08-21T00:47:04;100106.31;;;17.06;58.07
65394;BME280;52002;49.760;6.512;2022-08-21T00:49:30;100108.53;;;17.02;58.18
65394;BME280;52002;49.760;6.512;2022-08-21T00:51:58;100111.23;;;16.98;58.25
65394;BME280;52002;49.760;6.512;2022-08-21T00:54:25;100101.78;;;16.94;58.35
65394;BME280;52002;49.760;6.512;2022-08-21T00:57:04;100103.12;;;16.94;58.55
65394;BME280;52002;49.760;6.512;2022-08-21T00:59:27;100099.97;;;16.86;58.69
65394;BME280;52002;49.760;6.512;2022-08-21T01:01:56;100105.21;;;16.83;58.84
65394;BME280;52002;49.760;6.512;2022-08-21T01:04:22;100101.18;;;16.79;58.90
65394;BME280;52002;49.760;6.512;2022-08-21T01:06:49;100103.39;;;16.76;58.96
65394;BME280;52002;49.760;6.512;2022-08-21T01:09:16;100095.46;;;16.74;59.06
65394;BME280;52002;49.760;6.512;2022-08-21T01:11:44;100099.21;;;16.69;59.19
65394;BME280;52002;49.760;6.512;2022-08-21T01:14:12;100096.34;;;16.66;59.37
65394;BME280;52002;49.760;6.512;2022-08-21T01:16:41;100105.63;;;16.64;59.55
65394;BME280;52002;49.760;6.512;2022-08-21T01:19:08;100105.97;;;16.61;59.58
65394;BME280;52002;49.760;6.512;2022-08-21T01:21:34;100103.12;;;16.54;59.68
65394;BME280;52002;49.760;6.512;2022-08-21T01:24:00;100100.28;;;16.51;59.87
65394;BME280;52002;49.760;6.512;2022-08-21T01:26:30;100099.95;;;16.50;59.97
65394;BME280;52002;49.760;6.512;2022-08-21T01:29:00;100102.64;;;16.50;60.06
65394;BME280;52002;49.760;6.512;2022-08-21T01:31:41;100100.09;;;16.49;60.08
65394;BME280;52002;49.760;6.512;2022-08-21T01:34:08;100101.63;;;16.47;60.10
65394;BME280;52002;49.760;6.512;2022-08-21T01:36:34;100105.19;;;16.48;60.01
65394;BME280;52002;49.760;6.512;2022-08-21T01:39:00;100098.27;;;16.45;60.10
65394;BME280;52002;49.760;6.512;2022-08-21T01:41:28;100097.11;;;16.44;60.34
65394;BME280;52002;49.760;6.512;2022-08-21T01:43:53;100105.34;;;16.42;60.30
65394;BME280;52002;49.760;6.512;2022-08-21T01:46:19;100101.98;;;16.40;60.21
65394;BME280;52002;49.760;6.512;2022-08-21T01:48:45;100103.17;;;16.37;60.10
65394;BME280;52002;49.760;6.512;2022-08-21T01:51:11;100103.02;;;16.39;60.39
65394;BME280;52002;49.760;6.512;2022-08-21T01:53:38;100108.41;;;16.39;60.37
65394;BME280;52002;49.760;6.512;2022-08-21T01:56:08;100106.05;;;16.36;60.32
65394;BME280;52002;49.760;6.512;2022-08-21T01:58:34;100105.05;;;16.29;60.23
65394;BME280;52002;49.760;6.512;2022-08-21T02:01:01;100103.06;;;16.22;60.49
65394;BME280;52002;49.760;6.512;2022-08-21T02:03:29;100106.09;;;16.15;60.64
65394;BME280;52002;49.760;6.512;2022-08-21T02:05:55;100102.38;;;16.12;60.88
65394;BME280;52002;49.760;6.512;2022-08-21T02:08:22;100097.18;;;16.11;60.99
65394;BME280;52002;49.760;6.512;2022-08-21T02:10:49;100098.53;;;16.11;61.08
65394;BME280;52002;49.760;6.512;2022-08-21T02:13:17;100095.31;;;16.11;61.13
65394;BME280;52002;49.760;6.512;2022-08-21T02:15:43;100092.28;;;16.10;61.27
65394;BME280;52002;49.760;6.512;2022-08-21T02:18:10;100087.75;;;16.06;61.19
65394;BME280;52002;49.760;6.512;2022-08-21T02:20:38;100092.31;;;16.02;61.24
65394;BME280;52002;49.760;6.512;2022-08-21T02:23:08;100099.38;;;16.03;61.28
65394;BME280;52002;49.760;6.512;2022-08-21T02:25:35;100095.67;;;16.00;61.38
65394;BME280;52002;49.760;6.512;2022-08-21T02:28:06;100092.31;;;15.98;61.43
65394;BME280;52002;49.760;6.512;2022-08-21T02:30:38;100091.14;;;15.96;61.49
65394;BME280;52002;49.760;6.512;2022-08-21T02:33:05;100087.93;;;15.97;61.45
65394;BME280;52002;49.760;6.512;2022-08-21T02:35:32;100087.92;;;15.92;61.37
65394;BME280;52002;49.760;6.512;2022-08-21T02:38:01;100084.90;;;15.91;61.33
65394;BME280;52002;49.760;6.512;2022-08-21T02:40:32;100083.58;;;15.87;61.36
65394;BME280;52002;49.760;6.512;2022-08-21T02:43:00;100081.89;;;15.86;61.46
65394;BME280;52002;49.760;6.512;2022-08-21T02:45:28;100082.34;;;15.82;61.54
65394;BME280;52002;49.760;6.512;2022-08-21T02:47:56;100086.05;;;15.81;61.52
65394;BME280;52002;49.760;6.512;2022-08-21T02:50:27;100082.20;;;15.83;61.38
65394;BME280;52002;49.760;6.512;2022-08-21T02:52:54;100082.53;;;15.80;61.27
65394;BME280;52002;49.760;6.512;2022-08-21T02:55:23;100084.55;;;15.78;61.31
65394;BME280;52002;49.760;6.512;2022-08-21T02:57:53;100086.56;;;15.76;61.26
65394;BME280;52002;49.760;6.512;2022-08-21T03:00:22;100084.20;;;15.73;61.31
65394;BME280;52002;49.760;6.512;2022-08-21T03:02:50;100080.86;;;15.71;61.34
65394;BME280;52002;49.760;6.512;2022-08-21T03:05:17;100079.17;;;15.66;61.42
65394;BME280;52002;49.760;6.512;2022-08-21T03:07:44;100073.11;;;15.63;61.49
65394;BME280;52002;49.760;6.512;2022-08-21T03:10:12;100080.69;;;15.60;61.54
65394;BME280;52002;49.760;6.512;2022-08-21T03:12:38;100076.80;;;15.58;61.58
65394;BME280;52002;49.760;6.512;2022-08-21T03:15:06;100071.93;;;15.54;61.65
65394;BME280;52002;49.760;6.512;2022-08-21T03:17:34;100077.82;;;15.49;61.70
65394;BME280;52002;49.760;6.512;2022-08-21T03:20:01;100079.31;;;15.47;61.78
65394;BME280;52002;49.760;6.512;2022-08-21T03:22:30;100082.70;;;15.45;61.78
65394;BME280;52002;49.760;6.512;2022-08-21T03:24:57;100082.02;;;15.43;61.77
65394;BME280;52002;49.760;6.512;2022-08-21T03:27:25;100075.79;;;15.43;61.80
65394;BME280;52002;49.760;6.512;2022-08-21T03:29:52;100079.34;;;15.43;61.93
65394;BME280;52002;49.760;6.512;2022-08-21T03:32:19;100080.16;;;15.44;61.91
65394;BME280;52002;49.760;6.512;2022-08-21T03:34:45;100078.66;;;15.41;61.75
65394;BME280;52002;49.760;6.512;2022-08-21T03:37:13;100077.30;;;15.37;61.81
65394;BME280;52002;49.760;6.512;2022-08-21T03:39:40;100077.48;;;15.36;62.07
65394;BME280;52002;49.760;6.512;2022-08-21T03:42:08;100089.59;;;15.36;62.18
65394;BME280;52002;49.760;6.512;2022-08-21T03:44:35;100092.42;;;15.34;62.24
65394;BME280;52002;49.760;6.512;2022-08-21T03:47:01;100087.88;;;15.30;62.25
65394;BME280;52002;49.760;6.512;2022-08-21T03:49:27;100075.78;;;15.30;62.28
65394;BME280;52002;49.760;6.512;2022-08-21T03:51:53;100099.31;;;15.28;62.34
65394;BME280;52002;49.760;6.512;2022-08-21T03:54:19;100098.97;;;15.27;62.42
65394;BME280;52002;49.760;6.512;2022-08-21T03:56:46;100097.28;;;15.26;62.49
65394;BME280;52002;49.760;6.512;2022-08-21T03:59:13;100102.33;;;15.25;62.42
65394;BME280;52002;49.760;6.512;2022-08-21T04:01:39;100094.58;;;15.22;62.47
65394;BME280;52002;49.760;6.512;2022-08-21T04:04:05;100101.14;;;15.20;62.54
65394;BME280;52002;49.760;6.512;2022-08-21T04:06:32;100103.33;;;15.16;62.53
65394;BME280;52002;49.760;6.512;2022-08-21T04:08:58;100097.75;;;15.13;62.56
65394;BME280;52002;49.760;6.512;2022-08-21T04:11:24;100103.62;;;15.09;62.60
65394;BME280;52002;49.760;6.512;2022-08-21T04:13:50;100103.45;;;15.02;62.77
65394;BME280;52002;49.760;6.512;2022-08-21T04:16:16;100111.00;;;14.98;62.92
65394;BME280;52002;49.760;6.512;2022-08-21T04:18:42;100118.05;;;14.95;62.97
65394;BME280;52002;49.760;6.512;2022-08-21T04:21:12;100112.64;;;14.91;62.97
65394;BME280;52002;49.760;6.512;2022-08-21T04:23:38;100112.63;;;14.87;63.06
65394;BME280;52002;49.760;6.512;2022-08-21T04:26:04;100115.31;;;14.87;63.15
65394;BME280;52002;49.760;6.512;2022-08-21T04:28:31;100123.89;;;14.86;63.18
65394;BME280;52002;49.760;6.512;2022-08-21T04:30:57;100122.20;;;14.85;63.32
65394;BME280;52002;49.760;6.512;2022-08-21T04:33:23;100119.69;;;14.84;63.37
65394;BME280;52002;49.760;6.512;2022-08-21T04:35:49;100126.58;;;14.86;63.40
65394;BME280;52002;49.760;6.512;2022-08-21T04:38:16;100127.92;;;14.86;63.47
65394;BME280;52002;49.760;6.512;2022-08-21T04:40:42;100129.44;;;14.85;63.57
65394;BME280;52002;49.760;6.512;2022-08-21T04:43:10;100125.72;;;14.86;63.58
65394;BME280;52002;49.760;6.512;2022-08-21T04:45:41;100129.75;;;14.86;63.54
65394;BME280;52002;49.760;6.512;2022-08-21T04:48:12;100131.27;;;14.84;63.51
65394;BME280;52002;49.760;6.512;2022-08-21T04:50:50;100135.64;;;14.85;63.50
65394;BME280;52002;49.760;6.512;2022-08-21T04:53:44;100129.09;;;14.84;63.37
65394;BME280;52002;49.760;6.512;2022-08-21T04:56:18;100129.41;;;14.81;63.34
65394;BME280;52002;49.760;6.512;2022-08-21T04:58:58;100131.45;;;14.83;63.49
65394;BME280;52002;49.760;6.512;2022-08-21T05:01:27;100133.78;;;14.86;63.49
65394;BME280;52002;49.760;6.512;2022-08-21T05:03:56;100139.70;;;14.90;63.49
65394;BME280;52002;49.760;6.512;2022-08-21T05:06:24;100138.52;;;14.92;63.51
65394;BME280;52002;49.760;6.512;2022-08-21T05:08:53;100139.55;;;14.95;63.48
65394;BME280;52002;49.760;6.512;2022-08-21T05:11:20;100128.82;;;14.99;63.44
65394;BME280;52002;49.760;6.512;2022-08-21T05:13:48;100143.41;;;14.97;63.36
65394;BME280;52002;49.760;6.512;2022-08-21T05:16:15;100150.48;;;14.94;63.47
65394;BME280;52002;49.760;6.512;2022-08-21T05:18:42;100150.11;;;14.89;63.45
65394;BME280;52002;49.760;6.512;2022-08-21T05:21:08;100147.40;;;14.84;63.49
65394;BME280;52002;49.760;6.512;2022-08-21T05:23:35;100152.26;;;14.81;63.70
65394;BME280;52002;49.760;6.512;2022-08-21T05:26:02;100149.58;;;14.81;63.72
65394;BME280;52002;49.760;6.512;2022-08-21T05:28:30;100154.28;;;14.87;63.71
65394;BME280;52002;49.760;6.512;2022-08-21T05:30:57;100157.52;;;14.91;63.67
65394;BME280;52002;49.760;6.512;2022-08-21T05:33:23;100150.62;;;14.92;63.65
65394;BME280;52002;49.760;6.512;2022-08-21T05:35:51;100147.27;;;14.94;63.66
65394;BME280;52002;49.760;6.512;2022-08-21T05:38:18;100144.58;;;14.94;63.66
65394;BME280;52002;49.760;6.512;2022-08-21T05:40:45;100138.52;;;14.92;63.72
65394;BME280;52002;49.760;6.512;2022-08-21T05:43:11;100134.00;;;14.93;63.64
65394;BME280;52002;49.760;6.512;2022-08-21T05:45:37;100138.20;;;14.95;63.71
65394;BME280;52002;49.760;6.512;2022-08-21T05:48:08;100139.55;;;14.95;63.68
65394;BME280;52002;49.760;6.512;2022-08-21T05:50:36;100138.20;;;14.95;63.70
65394;BME280;52002;49.760;6.512;2022-08-21T05:53:04;100135.20;;;14.98;63.69
65394;BME280;52002;49.760;6.512;2022-08-21T05:55:30;100131.84;;;15.05;63.62
65394;BME280;52002;49.760;6.512;2022-08-21T05:57:56;100128.19;;;15.14;63.49
65394;BME280;52002;49.760;6.512;2022-08-21T06:00:22;100129.22;;;15.25;63.42
65394;BME280;52002;49.760;6.512;2022-08-21T06:02:50;100127.58;;;15.37;63.34
65394;BME280;52002;49.760;6.512;2022-08-21T06:05:17;100131.78;;;15.47;63.19
65394;BME280;52002;49.760;6.512;2022-08-21T06:07:44;100129.45;;;15.57;63.06
65394;BME280;52002;49.760;6.512;2022-08-21T06:10:10;100132.83;;;15.71;62.94
65394;BME280;52002;49.760;6.512;2022-08-21T06:12:36;100130.98;;;15.84;62.72
65394;BME280;52002;49.760;6.512;2022-08-21T06:15:03;100127.98;;;15.96;62.41
65394;BME280;52002;49.760;6.512;2022-08-21T06:17:29;100126.46;;;16.05;62.11
65394;BME280;52002;49.760;6.512;2022-08-21T06:19:55;100125.43;;;16.15;61.89
65394;BME280;52002;49.760;6.512;2022-08-21T06:22:21;100128.64;;;16.22;61.70
65394;BME280;52002;49.760;6.512;2022-08-21T06:24:47;100133.52;;;16.27;61.53
65394;BME280;52002;49.760;6.512;2022-08-21T06:27:13;100131.80;;;16.34;61.39
65394;BME280;52002;49.760;6.512;2022-08-21T06:29:40;100132.63;;;16.43;61.19
65394;BME280;52002;49.760;6.512;2022-08-21T06:32:06;100132.95;;;16.52;61.00
65394;BME280;52002;49.760;6.512;2022-08-21T06:34:38;100129.70;;;16.65;60.80
65394;BME280;52002;49.760;6.512;2022-08-21T06:37:05;100127.47;;;16.77;60.56
65394;BME280;52002;49.760;6.512;2022-08-21T06:39:32;100128.13;;;16.88;60.32
65394;BME280;52002;49.760;6.512;2022-08-21T06:41:59;100125.73;;;17.01;60.10
65394;BME280;52002;49.760;6.512;2022-08-21T06:44:25;100114.72;;;17.11;59.73
65394;BME280;52002;49.760;6.512;2022-08-21T06:46:51;100122.07;;;17.21;59.45
65394;BME280;52002;49.760;6.512;2022-08-21T06:49:17;100117.80;;;17.31;59.22
65394;BME280;52002;49.760;6.512;2022-08-21T06:51:43;100119.39;;;17.44;59.01
65394;BME280;52002;49.760;6.512;2022-08-21T06:54:09;100120.68;;;17.57;58.88
65394;BME280;52002;49.760;6.512;2022-08-21T06:56:35;100116.20;;;17.68;58.55
65394;BME280;52002;49.760;6.512;2022-08-21T06:59:03;100114.74;;;17.81;58.27
65394;BME280;52002;49.760;6.512;2022-08-21T07:01:31;100110.41;;;17.95;57.94
65394;BME280;52002;49.760;6.512;2022-08-21T07:03:58;100100.41;;;18.03;57.63
65394;BME280;52002;49.760;6.512;2022-08-21T07:06:24;100104.56;;;18.10;57.36
65394;BME280;52002;49.760;6.512;2022-08-21T07:08:50;100099.78;;;18.16;57.13
65394;BME280;52002;49.760;6.512;2022-08-21T07:11:22;100093.98;;;18.19;57.00
65394;BME280;52002;49.760;6.512;2022-08-21T07:13:50;100087.36;;;18.26;56.88
65394;BME280;52002;49.760;6.512;2022-08-21T07:16:18;100087.95;;;18.32;56.69
65394;BME280;52002;49.760;6.512;2022-08-21T07:18:46;100088.04;;;18.39;56.63
65394;BME280;52002;49.760;6.512;2022-08-21T07:21:12;100085.10;;;18.45;56.49
65394;BME280;52002;49.760;6.512;2022-08-21T07:23:42;100087.77;;;18.49;56.30
65394;BME280;52002;49.760;6.512;2022-08-21T07:26:13;100087.36;;;18.56;56.27
65394;BME280;52002;49.760;6.512;2022-08-21T07:28:40;100088.92;;;18.65;56.01
65394;BME280;52002;49.760;6.512;2022-08-21T07:31:06;100085.80;;;18.73;55.83
65394;BME280;52002;49.760;6.512;2022-08-21T07:33:34;100087.89;;;18.81;55.65
65394;BME280;52002;49.760;6.512;2022-08-21T07:36:00;100091.66;;;18.91;55.51
65394;BME280;52002;49.760;6.512;2022-08-21T07:38:26;100093.44;;;18.99;55.24
65394;BME280;52002;49.760;6.512;2022-08-21T07:40:54;100096.67;;;19.09;54.82
65394;BME280;52002;49.760;6.512;2022-08-21T07:43:23;100105.13;;;19.21;54.73
65394;BME280;52002;49.760;6.512;2022-08-21T07:45:50;100099.36;;;19.35;54.60
65394;BME280;52002;49.760;6.512;2022-08-21T07:48:16;100105.41;;;19.48;54.34
65394;BME280;52002;49.760;6.512;2022-08-21T07:50:43;100108.91;;;19.64;54.02
65394;BME280;52002;49.760;6.512;2022-08-21T07:53:09;100107.67;;;19.77;53.82
65394;BME280;52002;49.760;6.512;2022-08-21T07:55:35;100104.39;;;19.93;53.50
65394;BME280;52002;49.760;6.512;2022-08-21T07:58:01;100095.55;;;20.06;52.96
65394;BME280;52002;49.760;6.512;2022-08-21T08:00:28;100094.14;;;20.16;52.57
65394;BME280;52002;49.760;6.512;2022-08-21T08:02:55;100091.01;;;20.30;52.08
65394;BME280;52002;49.760;6.512;2022-08-21T08:05:24;100083.73;;;20.49;51.72
65394;BME280;52002;49.760;6.512;2022-08-21T08:07:52;100079.94;;;20.67;51.45
65394;BME280;52002;49.760;6.512;2022-08-21T08:10:18;100080.08;;;20.87;51.33
65394;BME280;52002;49.760;6.512;2022-08-21T08:12:45;100087.95;;;21.06;51.41
65394;BME280;52002;49.760;6.512;2022-08-21T08:15:17;100081.75;;;21.26;51.41
65394;BME280;52002;49.760;6.512;2022-08-21T08:17:46;100075.61;;;21.42;51.01
65394;BME280;52002;49.760;6.512;2022-08-21T08:20:15;100075.03;;;21.60;50.65
65394;BME280;52002;49.760;6.512;2022-08-21T08:22:43;100079.77;;;21.75;50.21
65394;BME280;52002;49.760;6.512;2022-08-21T08:25:12;100077.23;;;21.87;49.69
65394;BME280;52002;49.760;6.512;2022-08-21T08:27:39;100073.91;;;21.98;49.33
65394;BME280;52002;49.760;6.512;2022-08-21T08:30:07;100069.17;;;22.10;49.11
65394;BME280;52002;49.760;6.512;2022-08-21T08:32:35;100075.03;;;22.20;48.90
65394;BME280;52002;49.760;6.512;2022-08-21T08:35:02;100069.88;;;22.35;48.65
65394;BME280;52002;49.760;6.512;2022-08-21T08:37:28;100069.23;;;22.46;48.32
65394;BME280;52002;49.760;6.512;2022-08-21T08:39:54;100071.59;;;22.58;48.00
65394;BME280;52002;49.760;6.512;2022-08-21T08:42:24;100061.85;;;22.67;47.44
65394;BME280;52002;49.760;6.512;2022-08-21T08:45:07;100056.46;;;22.76;46.80
65394;BME280;52002;49.760;6.512;2022-08-21T08:47:38;100055.03;;;22.89;46.69
65394;BME280;52002;49.760;6.512;2022-08-21T08:50:10;100056.66;;;23.04;46.40
65394;BME280;52002;49.760;6.512;2022-08-21T08:52:52;100056.88;;;23.18;46.70
65394;BME280;52002;49.760;6.512;2022-08-21T08:55:35;100057.75;;;23.35;46.60
65394;BME280;52002;49.760;6.512;2022-08-21T08:58:05;100053.80;;;23.47;46.26
65394;BME280;52002;49.760;6.512;2022-08-21T09:00:32;100061.27;;;23.68;45.97
65394;BME280;52002;49.760;6.512;2022-08-21T09:03:01;100063.13;;;23.83;45.72
65394;BME280;52002;49.760;6.512;2022-08-21T09:05:36;100050.11;;;24.01;45.19
65394;BME280;52002;49.760;6.512;2022-08-21T09:11:26;100055.61;;;24.38;43.63
65394;BME280;52002;49.760;6.512;2022-08-21T09:14:28;100056.34;;;24.64;42.88
65394;BME280;52002;49.760;6.512;2022-08-21T09:26:50;100047.25;;;25.41;40.76
65394;BME280;52002;49.760;6.512;2022-08-21T09:29:26;100049.44;;;25.63;40.39
65394;BME280;52002;49.760;6.512;2022-08-21T09:31:55;100046.30;;;25.80;39.92
65394;BME280;52002;49.760;6.512;2022-08-21T09:34:31;100042.16;;;25.89;39.22
65394;BME280;52002;49.760;6.512;2022-08-21T09:36:58;100051.86;;;25.95;38.67
65394;BME280;52002;49.760;6.512;2022-08-21T09:39:28;100043.59;;;26.04;38.32
65394;BME280;52002;49.760;6.512;2022-08-21T09:41:58;100046.52;;;26.24;38.25
65394;BME280;52002;49.760;6.512;2022-08-21T09:44:30;100044.16;;;26.42;37.85
65394;BME280;52002;49.760;6.512;2022-08-21T09:46:58;100048.54;;;26.55;37.54
65394;BME280;52002;49.760;6.512;2022-08-21T09:49:38;100039.16;;;26.65;37.33
65394;BME280;52002;49.760;6.512;2022-08-21T09:52:00;100043.15;;;26.72;37.25
65394;BME280;52002;49.760;6.512;2022-08-21T09:54:36;100039.81;;;26.81;36.98
65394;BME280;52002;49.760;6.512;2022-08-21T10:00:17;100035.01;;;26.89;36.44
65394;BME280;52002;49.760;6.512;2022-08-21T10:02:47;100035.34;;;26.92;36.30
65394;BME280;52002;49.760;6.512;2022-08-21T10:05:25;100033.64;;;26.89;36.20
65394;BME280;52002;49.760;6.512;2022-08-21T10:07:52;100029.72;;;26.85;36.22
65394;BME280;52002;49.760;6.512;2022-08-21T10:10:21;100029.54;;;26.77;36.14
65394;BME280;52002;49.760;6.512;2022-08-21T10:13:06;100016.48;;;26.67;35.94
65394;BME280;52002;49.760;6.512;2022-08-21T10:22:14;100003.92;;;26.54;35.89
65394;BME280;52002;49.760;6.512;2022-08-21T10:25:08;99996.13;;;26.48;35.98
65394;BME280;52002;49.760;6.512;2022-08-21T10:27:43;99987.34;;;26.46;35.84
65394;BME280;52002;49.760;6.512;2022-08-21T10:30:46;99989.28;;;26.48;35.92
65394;BME280;52002;49.760;6.512;2022-08-21T10:33:38;99992.72;;;26.56;35.82
65394;BME280;52002;49.760;6.512;2022-08-21T10:36:19;99988.43;;;26.60;35.74
65394;BME280;52002;49.760;6.512;2022-08-21T10:39:03;99988.43;;;26.60;35.65
65394;BME280;52002;49.760;6.512;2022-08-21T10:41:52;99987.44;;;26.66;35.78
65394;BME280;52002;49.760;6.512;2022-08-21T10:48:02;99989.61;;;26.64;35.49
65394;BME280;52002;49.760;6.512;2022-08-21T10:52:54;99982.84;;;26.69;35.43
65394;BME280;52002;49.760;6.512;2022-08-21T10:58:11;99984.53;;;26.85;35.30
65394;BME280;52002;49.760;6.512;2022-08-21T11:00:50;99984.77;;;26.98;34.77
65394;BME280;52002;49.760;6.512;2022-08-21T11:03:41;99980.57;;;27.07;34.61
65394;BME280;52002;49.760;6.512;2022-08-21T11:06:26;99974.70;;;27.18;34.72
65394;BME280;52002;49.760;6.512;2022-08-21T11:09:12;99979.69;;;27.21;34.30
65394;BME280;52002;49.760;6.512;2022-08-21T11:11:50;99970.00;;;27.30;34.29
65394;BME280;52002;49.760;6.512;2022-08-21T11:17:38;99973.34;;;27.49;33.29
65394;BME280;52002;49.760;6.512;2022-08-21T11:20:28;99963.27;;;27.55;33.46
65394;BME280;52002;49.760;6.512;2022-08-21T11:23:14;99965.61;;;27.63;33.19
65394;BME280;52002;49.760;6.512;2022-08-21T11:26:07;99960.12;;;27.63;33.08
65394;BME280;52002;49.760;6.512;2022-08-21T11:28:51;99951.66;;;27.67;32.84
65394;BME280;52002;49.760;6.512;2022-08-21T11:31:23;99956.30;;;27.64;32.80
65394;BME280;52002;49.760;6.512;2022-08-21T11:34:09;99948.36;;;27.65;32.57
65394;BME280;52002;49.760;6.512;2022-08-21T11:42:35;99945.91;;;27.32;32.85
65394;BME280;52002;49.760;6.512;2022-08-21T11:48:40;99953.80;;;27.11;33.30
65394;BME280;52002;49.760;6.512;2022-08-21T11:51:12;99943.33;;;27.08;33.52
65394;BME280;52002;49.760;6.512;2022-08-21T11:56:27;99945.02;;;26.95;32.65
65394;BME280;52002;49.760;6.512;2022-08-21T11:59:00;99948.44;;;26.88;32.48
65394;BME280;52002;49.760;6.512;2022-08-21T12:01:31;99951.08;;;26.83;32.80
65394;BME280;52002;49.760;6.512;2022-08-21T12:04:01;99945.69;;;26.73;32.26
65394;BME280;52002;49.760;6.512;2022-08-21T12:06:39;99952.69;;;26.66;32.32
65394;BME280;52002;49.760;6.512;2022-08-21T12:12:11;99943.14;;;26.69;32.52
65394;BME280;52002;49.760;6.512;2022-08-21T12:17:24;99933.56;;;26.69;32.24
65394;BME280;52002;49.760;6.512;2022-08-21T12:20:00;99927.79;;;26.68;32.31
65394;BME280;52002;49.760;6.512;2022-08-21T12:22:54;99925.64;;;26.70;32.32
65394;BME280;52002;49.760;6.512;2022-08-21T12:25:22;99926.72;;;26.69;31.80
65394;BME280;52002;49.760;6.512;2022-08-21T12:28:02;99926.52;;;26.73;31.95
65394;BME280;52002;49.760;6.512;2022-08-21T12:30:34;99917.86;;;26.79;31.69
65394;BME280;52002;49.760;6.512;2022-08-21T12:35:53;99914.30;;;26.93;31.77
65394;BME280;52002;49.760;6.512;2022-08-21T12:38:56;99908.50;;;27.06;31.53
65394;BME280;52002;49.760;6.512;2022-08-21T12:41:32;99904.54;;;27.17;31.31
65394;BME280;52002;49.760;6.512;2022-08-21T12:44:05;99911.19;;;27.21;31.46
65394;BME280;52002;49.760;6.512;2022-08-21T12:47:06;99901.66;;;27.23;31.54
65394;BME280;52002;49.760;6.512;2022-08-21T12:50:03;99907.45;;;27.27;31.19
65394;BME280;52002;49.760;6.512;2022-08-21T12:55:26;99886.94;;;27.30;30.76
65394;BME280;52002;49.760;6.512;2022-08-21T12:57:54;99893.47;;;27.26;30.54
65394;BME280;52002;49.760;6.512;2022-08-21T13:00:22;99889.84;;;27.23;30.81
65394;BME280;52002;49.760;6.512;2022-08-21T13:02:51;99884.45;;;27.28;30.74
65394;BME280;52002;49.760;6.512;2022-08-21T13:05:27;99887.34;;;27.38;30.58
65394;BME280;52002;49.760;6.512;2022-08-21T13:07:57;99885.88;;;27.48;30.88
65394;BME280;52002;49.760;6.512;2022-08-21T13:10:30;99881.89;;;27.58;30.65
65394;BME280;52002;49.760;6.512;2022-08-21T13:12:57;99879.57;;;27.69;30.23
65394;BME280;52002;49.760;6.512;2022-08-21T13:15:34;99875.03;;;27.78;30.21
65394;BME280;52002;49.760;6.512;2022-08-21T13:18:03;99869.42;;;27.90;30.07
65394;BME280;52002;49.760;6.512;2022-08-21T13:20:33;99870.09;;;27.99;29.90
65394;BME280;52002;49.760;6.512;2022-08-21T13:23:06;99871.61;;;28.10;29.56
65394;BME280;52002;49.760;6.512;2022-08-21T13:25:36;99868.36;;;28.13;29.10
65394;BME280;52002;49.760;6.512;2022-08-21T13:28:09;99861.81;;;28.19;28.95
65394;BME280;52002;49.760;6.512;2022-08-21T13:30:42;99864.98;;;28.30;29.02
65394;BME280;52002;49.760;6.512;2022-08-21T13:33:12;99865.65;;;28.43;28.61
65394;BME280;52002;49.760;6.512;2022-08-21T13:35:52;99863.53;;;28.50;28.19
65394;BME280;52002;49.760;6.512;2022-08-21T13:38:26;99863.28;;;28.54;28.20
65394;BME280;52002;49.760;6.512;2022-08-21T13:41:03;99853.49;;;28.63;27.94
65394;BME280;52002;49.760;6.512;2022-08-21T13:43:47;99856.63;;;28.75;27.92
65394;BME280;52002;49.760;6.512;2022-08-21T13:46:28;99855.14;;;28.92;27.66
65394;BME280;52002;49.760;6.512;2022-08-21T13:48:58;99854.98;;;29.09;27.67
65394;BME280;52002;49.760;6.512;2022-08-21T13:51:26;99851.52;;;29.27;27.24
65394;BME280;52002;49.760;6.512;2022-08-21T13:53:53;99854.15;;;29.49;27.04
65394;BME280;52002;49.760;6.512;2022-08-21T13:56:27;99857.61;;;29.82;26.57
65394;BME280;52002;49.760;6.512;2022-08-21T13:58:59;99860.30;;;30.35;26.22
65394;BME280;52002;49.760;6.512;2022-08-21T14:01:30;99846.78;;;31.45;25.70
65394;BME280;52002;49.760;6.512;2022-08-21T14:04:07;99850.00;;;33.08;24.43
65394;BME280;52002;49.760;6.512;2022-08-21T14:06:47;99850.27;;;34.09;23.18